sensor_id;sensor_type;location;lat;lon;timestamp;P1;durP1;ratioP1;P2;durP2;ratioP2
35518;SDS011;21627;48.216;16.482;2023-12-04T00:02:05;24.77;;;13.53;;
35518;SDS011;21627;48.216;16.482;2023-12-04T00:04:33;27.67;;;14.30;;
35518;SDS011;21627;48.216;16.482;2023-12-04T00:07:00;25.57;;;13.43;;
35518;SDS011;21627;48.216;16.482;2023-12-04T00:09:27;25.57;;;14.57;;
35518;SDS011;21627;48.216;16.482;2023-12-04T00:11:54;25.93;;;14.20;;
35518;SDS011;21627;48.216;16.482;2023-12-04T00:14:21;25.63;;;13.73;;
35518;SDS011;21627;48.216;16.482;2023-12-04T00:16:48;26.03;;;13.27;;
35518;SDS011;21627;48.216;16.482;2023-12-04T00:19:15;25.93;;;13.70;;
35518;SDS011;21627;48.216;16.482;2023-12-04T00:21:43;26.87;;;14.33;;
35518;SDS011;21627;48.216;16.482;2023-12-04T00:24:10;27.83;;;14.27;;
35518;SDS011;21627;48.216;16.482;2023-12-04T00:26:37;29.17;;;14.50;;
35518;SDS011;21627;48.216;16.482;2023-12-04T00:29:04;26.10;;;14.00;;
35518;SDS011;21627;48.216;16.482;2023-12-04T00:31:31;26.40;;;13.93;;
35518;SDS011;21627;48.216;16.482;2023-12-04T00:33:59;27.17;;;13.93;;
35518;SDS011;21627;48.216;16.482;2023-12-04T00:36:27;33.37;;;14.47;;
35518;SDS011;21627;48.216;16.482;2023-12-04T00:38:54;28.60;;;15.10;;
35518;SDS011;21627;48.216;16.482;2023-12-04T00:41:21;28.37;;;14.40;;
35518;SDS011;21627;48.216;16.482;2023-12-04T00:43:48;34.00;;;15.80;;
35518;SDS011;21627;48.216;16.482;2023-12-04T00:46:15;29.40;;;14.40;;
35518;SDS011;21627;48.216;16.482;2023-12-04T00:48:43;33.83;;;14.27;;
35518;SDS011;21627;48.216;16.482;2023-12-04T00:51:12;25.60;;;13.93;;
35518;SDS011;21627;48.216;16.482;2023-12-04T00:53:39;26.93;;;13.80;;
35518;SDS011;21627;48.216;16.482;2023-12-04T00:56:06;34.40;;;13.60;;
35518;SDS011;21627;48.216;16.482;2023-12-04T00:58:34;31.77;;;14.90;;
35518;SDS011;21627;48.216;16.482;2023-12-04T01:01:01;30.43;;;15.03;;
35518;SDS011;21627;48.216;16.482;2023-12-04T01:03:29;26.73;;;13.83;;
35518;SDS011;21627;48.216;16.482;2023-12-04T01:05:59;34.00;;;14.47;;
35518;SDS011;21627;48.216;16.482;2023-12-04T01:08:26;28.33;;;13.83;;
35518;SDS011;21627;48.216;16.482;2023-12-04T01:10:53;27.27;;;14.03;;
35518;SDS011;21627;48.216;16.482;2023-12-04T01:13:20;25.97;;;13.43;;
35518;SDS011;21627;48.216;16.482;2023-12-04T01:15:47;26.63;;;14.47;;
35518;SDS011;21627;48.216;16.482;2023-12-04T01:18:15;28.33;;;14.37;;
35518;SDS011;21627;48.216;16.482;2023-12-04T01:20:42;28.80;;;14.90;;
35518;SDS011;21627;48.216;16.482;2023-12-04T01:23:09;22.63;;;13.37;;
35518;SDS011;21627;48.216;16.482;2023-12-04T01:25:36;24.17;;;12.37;;
35518;SDS011;21627;48.216;16.482;2023-12-04T01:28:04;23.53;;;12.00;;
35518;SDS011;21627;48.216;16.482;2023-12-04T01:30:31;27.27;;;13.60;;
35518;SDS011;21627;48.216;16.482;2023-12-04T01:32:58;29.33;;;13.80;;
35518;SDS011;21627;48.216;16.482;2023-12-04T01:35:25;25.73;;;13.27;;
35518;SDS011;21627;48.216;16.482;2023-12-04T01:37:52;23.73;;;13.87;;
35518;SDS011;21627;48.216;16.482;2023-12-04T01:40:19;26.63;;;13.57;;
35518;SDS011;21627;48.216;16.482;2023-12-04T01:42:47;26.50;;;12.70;;
35518;SDS011;21627;48.216;16.482;2023-12-04T01:45:14;25.33;;;13.03;;
35518;SDS011;21627;48.216;16.482;2023-12-04T01:47:41;28.73;;;13.93;;
35518;SDS011;21627;48.216;16.482;2023-12-04T01:50:11;27.47;;;14.20;;
35518;SDS011;21627;48.216;16.482;2023-12-04T01:52:40;29.70;;;15.47;;
35518;SDS011;21627;48.216;16.482;2023-12-04T01:55:07;32.47;;;15.43;;
35518;SDS011;21627;48.216;16.482;2023-12-04T01:57:37;37.60;;;16.13;;
35518;SDS011;21627;48.216;16.482;2023-12-04T02:00:04;29.63;;;15.83;;
35518;SDS011;21627;48.216;16.482;2023-12-04T02:02:38;28.73;;;15.30;;
35518;SDS011;21627;48.216;16.482;2023-12-04T02:05:07;34.37;;;16.33;;
35518;SDS011;21627;48.216;16.482;2023-12-04T02:07:35;32.23;;;15.87;;
35518;SDS011;21627;48.216;16.482;2023-12-04T02:10:03;31.97;;;15.57;;
35518;SDS011;21627;48.216;16.482;2023-12-04T02:12:32;32.87;;;16.87;;
35518;SDS011;21627;48.216;16.482;2023-12-04T02:15:00;38.37;;;16.60;;
35518;SDS011;21627;48.216;16.482;2023-12-04T02:17:27;32.27;;;17.03;;
35518;SDS011;21627;48.216;16.482;2023-12-04T02:19:55;31.17;;;16.23;;
35518;SDS011;21627;48.216;16.482;2023-12-04T02:22:23;32.20;;;16.13;;
35518;SDS011;21627;48.216;16.482;2023-12-04T02:24:50;30.00;;;15.57;;
35518;SDS011;21627;48.216;16.482;2023-12-04T02:27:20;37.87;;;16.53;;
35518;SDS011;21627;48.216;16.482;2023-12-04T02:29:52;32.27;;;15.87;;
35518;SDS011;21627;48.216;16.482;2023-12-04T02:32:29;34.40;;;16.33;;
35518;SDS011;21627;48.216;16.482;2023-12-04T02:35:00;29.37;;;14.50;;
35518;SDS011;21627;48.216;16.482;2023-12-04T02:37:31;30.23;;;16.00;;
35518;SDS011;21627;48.216;16.482;2023-12-04T02:39:59;29.77;;;16.47;;
35518;SDS011;21627;48.216;16.482;2023-12-04T02:42:27;32.43;;;16.80;;
35518;SDS011;21627;48.216;16.482;2023-12-04T02:44:55;29.90;;;15.60;;
35518;SDS011;21627;48.216;16.482;2023-12-04T02:47:22;31.23;;;15.47;;
35518;SDS011;21627;48.216;16.482;2023-12-04T02:49:49;30.00;;;15.93;;
35518;SDS011;21627;48.216;16.482;2023-12-04T02:52:17;32.70;;;17.17;;
35518;SDS011;21627;48.216;16.482;2023-12-04T02:54:44;31.60;;;15.50;;
35518;SDS011;21627;48.216;16.482;2023-12-04T02:57:11;32.17;;;16.23;;
35518;SDS011;21627;48.216;16.482;2023-12-04T02:59:38;26.97;;;16.50;;
35518;SDS011;21627;48.216;16.482;2023-12-04T03:02:05;33.27;;;16.00;;
35518;SDS011;21627;48.216;16.482;2023-12-04T03:04:33;30.97;;;15.13;;
35518;SDS011;21627;48.216;16.482;2023-12-04T03:07:02;32.10;;;16.67;;
35518;SDS011;21627;48.216;16.482;2023-12-04T03:09:29;32.00;;;17.17;;
35518;SDS011;21627;48.216;16.482;2023-12-04T03:12:14;35.53;;;17.05;;
35518;SDS011;21627;48.216;16.482;2023-12-04T03:14:43;36.57;;;19.10;;
35518;SDS011;21627;48.216;16.482;2023-12-04T03:17:10;34.30;;;16.80;;
35518;SDS011;21627;48.216;16.482;2023-12-04T03:19:37;31.77;;;16.67;;
35518;SDS011;21627;48.216;16.482;2023-12-04T03:22:04;31.33;;;16.90;;
35518;SDS011;21627;48.216;16.482;2023-12-04T03:24:31;35.87;;;17.43;;
35518;SDS011;21627;48.216;16.482;2023-12-04T03:26:59;33.90;;;16.47;;
35518;SDS011;21627;48.216;16.482;2023-12-04T03:29:26;37.47;;;16.50;;
35518;SDS011;21627;48.216;16.482;2023-12-04T03:31:53;37.83;;;18.53;;
35518;SDS011;21627;48.216;16.482;2023-12-04T03:34:20;34.40;;;16.90;;
35518;SDS011;21627;48.216;16.482;2023-12-04T03:36:47;32.90;;;16.93;;
35518;SDS011;21627;48.216;16.482;2023-12-04T03:39:14;36.97;;;17.80;;
35518;SDS011;21627;48.216;16.482;2023-12-04T03:41:41;37.73;;;18.00;;
35518;SDS011;21627;48.216;16.482;2023-12-04T03:44:08;34.17;;;16.97;;
35518;SDS011;21627;48.216;16.482;2023-12-04T03:46:36;32.30;;;16.33;;
35518;SDS011;21627;48.216;16.482;2023-12-04T03:49:04;35.57;;;17.73;;
35518;SDS011;21627;48.216;16.482;2023-12-04T03:51:32;34.73;;;17.87;;
35518;SDS011;21627;48.216;16.482;2023-12-04T03:53:59;33.23;;;16.97;;
35518;SDS011;21627;48.216;16.482;2023-12-04T03:56:26;34.83;;;18.20;;
35518;SDS011;21627;48.216;16.482;2023-12-04T03:58:53;33.43;;;17.27;;
35518;SDS011;21627;48.216;16.482;2023-12-04T04:01:20;30.37;;;16.77;;
35518;SDS011;21627;48.216;16.482;2023-12-04T04:03:48;33.53;;;16.70;;
35518;SDS011;21627;48.216;16.482;2023-12-04T04:06:15;34.00;;;17.10;;
35518;SDS011;21627;48.216;16.482;2023-12-04T04:08:42;33.23;;;17.00;;
35518;SDS011;21627;48.216;16.482;2023-12-04T04:11:09;29.60;;;15.90;;
35518;SDS011;21627;48.216;16.482;2023-12-04T04:13:38;36.90;;;17.40;;
35518;SDS011;21627;48.216;16.482;2023-12-04T04:16:05;34.23;;;16.70;;
35518;SDS011;21627;48.216;16.482;2023-12-04T04:18:33;36.00;;;17.33;;
35518;SDS011;21627;48.216;16.482;2023-12-04T04:21:00;35.80;;;18.87;;
35518;SDS011;21627;48.216;16.482;2023-12-04T04:23:27;36.13;;;17.73;;
35518;SDS011;21627;48.216;16.482;2023-12-04T04:25:54;36.60;;;17.80;;
35518;SDS011;21627;48.216;16.482;2023-12-04T04:28:21;39.67;;;19.70;;
35518;SDS011;21627;48.216;16.482;2023-12-04T04:30:48;44.40;;;21.30;;
35518;SDS011;21627;48.216;16.482;2023-12-04T04:33:15;42.60;;;20.40;;
35518;SDS011;21627;48.216;16.482;2023-12-04T04:35:44;46.30;;;22.57;;
35518;SDS011;21627;48.216;16.482;2023-12-04T04:38:11;41.00;;;20.77;;
35518;SDS011;21627;48.216;16.482;2023-12-04T04:40:38;40.30;;;20.40;;
35518;SDS011;21627;48.216;16.482;2023-12-04T04:43:09;42.80;;;19.80;;
35518;SDS011;21627;48.216;16.482;2023-12-04T04:45:37;41.03;;;20.47;;
35518;SDS011;21627;48.216;16.482;2023-12-04T04:48:05;43.50;;;20.87;;
35518;SDS011;21627;48.216;16.482;2023-12-04T04:50:32;37.50;;;18.23;;
35518;SDS011;21627;48.216;16.482;2023-12-04T04:52:59;45.80;;;21.27;;
35518;SDS011;21627;48.216;16.482;2023-12-04T04:55:26;48.27;;;22.13;;
35518;SDS011;21627;48.216;16.482;2023-12-04T04:58:13;45.17;;;21.73;;
35518;SDS011;21627;48.216;16.482;2023-12-04T05:00:40;47.70;;;23.20;;
35518;SDS011;21627;48.216;16.482;2023-12-04T05:03:07;46.20;;;21.13;;
35518;SDS011;21627;48.216;16.482;2023-12-04T05:05:35;40.10;;;20.33;;
35518;SDS011;21627;48.216;16.482;2023-12-04T05:08:02;48.97;;;21.03;;
35518;SDS011;21627;48.216;16.482;2023-12-04T05:10:29;36.03;;;18.80;;
35518;SDS011;21627;48.216;16.482;2023-12-04T05:12:56;41.63;;;18.50;;
35518;SDS011;21627;48.216;16.482;2023-12-04T05:15:23;39.77;;;19.03;;
35518;SDS011;21627;48.216;16.482;2023-12-04T05:17:51;38.60;;;19.70;;
35518;SDS011;21627;48.216;16.482;2023-12-04T05:20:18;32.37;;;17.80;;
35518;SDS011;21627;48.216;16.482;2023-12-04T05:22:46;38.30;;;18.97;;
35518;SDS011;21627;48.216;16.482;2023-12-04T05:25:13;33.03;;;17.83;;
35518;SDS011;21627;48.216;16.482;2023-12-04T05:27:40;31.43;;;18.53;;
35518;SDS011;21627;48.216;16.482;2023-12-04T05:30:07;33.43;;;18.40;;
35518;SDS011;21627;48.216;16.482;2023-12-04T05:32:34;31.97;;;17.67;;
35518;SDS011;21627;48.216;16.482;2023-12-04T05:35:02;35.90;;;18.77;;
35518;SDS011;21627;48.216;16.482;2023-12-04T05:37:29;36.53;;;18.77;;
35518;SDS011;21627;48.216;16.482;2023-12-04T05:39:57;31.33;;;17.40;;
35518;SDS011;21627;48.216;16.482;2023-12-04T05:42:24;34.93;;;17.53;;
35518;SDS011;21627;48.216;16.482;2023-12-04T05:44:51;38.07;;;19.00;;
35518;SDS011;21627;48.216;16.482;2023-12-04T05:47:21;28.73;;;16.70;;
35518;SDS011;21627;48.216;16.482;2023-12-04T05:49:49;29.23;;;16.27;;
35518;SDS011;21627;48.216;16.482;2023-12-04T05:52:16;31.23;;;17.33;;
35518;SDS011;21627;48.216;16.482;2023-12-04T05:54:43;33.87;;;17.03;;
35518;SDS011;21627;48.216;16.482;2023-12-04T05:57:10;33.17;;;18.83;;
35518;SDS011;21627;48.216;16.482;2023-12-04T05:59:38;41.17;;;21.90;;
35518;SDS011;21627;48.216;16.482;2023-12-04T06:02:05;42.03;;;21.33;;
35518;SDS011;21627;48.216;16.482;2023-12-04T06:04:32;38.50;;;20.77;;
35518;SDS011;21627;48.216;16.482;2023-12-04T06:06:59;34.50;;;17.27;;
35518;SDS011;21627;48.216;16.482;2023-12-04T06:09:26;29.80;;;16.43;;
35518;SDS011;21627;48.216;16.482;2023-12-04T06:11:53;31.83;;;15.87;;
35518;SDS011;21627;48.216;16.482;2023-12-04T06:14:21;29.33;;;15.40;;
35518;SDS011;21627;48.216;16.482;2023-12-04T06:16:48;32.83;;;16.63;;
35518;SDS011;21627;48.216;16.482;2023-12-04T06:19:15;31.70;;;17.03;;
35518;SDS011;21627;48.216;16.482;2023-12-04T06:21:43;36.10;;;19.90;;
35518;SDS011;21627;48.216;16.482;2023-12-04T06:24:10;37.90;;;18.60;;
35518;SDS011;21627;48.216;16.482;2023-12-04T06:26:39;28.57;;;16.07;;
35518;SDS011;21627;48.216;16.482;2023-12-04T06:29:09;36.20;;;16.90;;
35518;SDS011;21627;48.216;16.482;2023-12-04T06:31:37;26.90;;;15.53;;
35518;SDS011;21627;48.216;16.482;2023-12-04T06:34:04;31.30;;;15.80;;
35518;SDS011;21627;48.216;16.482;2023-12-04T06:36:32;28.03;;;16.10;;
35518;SDS011;21627;48.216;16.482;2023-12-04T06:39:06;30.17;;;15.33;;
35518;SDS011;21627;48.216;16.482;2023-12-04T06:41:39;31.93;;;16.73;;
35518;SDS011;21627;48.216;16.482;2023-12-04T06:44:07;28.47;;;15.13;;
35518;SDS011;21627;48.216;16.482;2023-12-04T06:46:36;26.03;;;13.90;;
35518;SDS011;21627;48.216;16.482;2023-12-04T06:49:05;31.43;;;15.57;;
35518;SDS011;21627;48.216;16.482;2023-12-04T06:51:35;27.90;;;16.07;;
35518;SDS011;21627;48.216;16.482;2023-12-04T06:54:02;30.57;;;15.90;;
35518;SDS011;21627;48.216;16.482;2023-12-04T06:56:29;28.40;;;14.53;;
35518;SDS011;21627;48.216;16.482;2023-12-04T06:58:56;29.30;;;15.70;;
35518;SDS011;21627;48.216;16.482;2023-12-04T07:01:24;30.40;;;14.40;;
35518;SDS011;21627;48.216;16.482;2023-12-04T07:03:51;30.23;;;15.37;;
35518;SDS011;21627;48.216;16.482;2023-12-04T07:06:18;29.03;;;15.57;;
35518;SDS011;21627;48.216;16.482;2023-12-04T07:08:45;33.37;;;15.63;;
35518;SDS011;21627;48.216;16.482;2023-12-04T07:11:12;30.53;;;16.70;;
35518;SDS011;21627;48.216;16.482;2023-12-04T07:13:41;33.10;;;16.70;;
35518;SDS011;21627;48.216;16.482;2023-12-04T07:16:08;37.40;;;17.87;;
35518;SDS011;21627;48.216;16.482;2023-12-04T07:18:36;35.73;;;17.20;;
35518;SDS011;21627;48.216;16.482;2023-12-04T07:21:03;33.50;;;17.43;;
35518;SDS011;21627;48.216;16.482;2023-12-04T07:23:31;33.43;;;17.50;;
35518;SDS011;21627;48.216;16.482;2023-12-04T07:25:58;38.90;;;17.57;;
35518;SDS011;21627;48.216;16.482;2023-12-04T07:28:25;35.40;;;19.13;;
35518;SDS011;21627;48.216;16.482;2023-12-04T07:30:53;36.53;;;18.80;;
35518;SDS011;21627;48.216;16.482;2023-12-04T07:33:21;43.67;;;21.07;;
35518;SDS011;21627;48.216;16.482;2023-12-04T07:35:48;47.43;;;21.93;;
35518;SDS011;21627;48.216;16.482;2023-12-04T07:38:17;58.57;;;24.73;;
35518;SDS011;21627;48.216;16.482;2023-12-04T07:40:44;53.17;;;24.23;;
35518;SDS011;21627;48.216;16.482;2023-12-04T07:43:12;56.30;;;24.77;;
35518;SDS011;21627;48.216;16.482;2023-12-04T07:45:41;53.27;;;23.27;;
35518;SDS011;21627;48.216;16.482;2023-12-04T07:48:08;51.33;;;22.90;;
35518;SDS011;21627;48.216;16.482;2023-12-04T07:50:35;57.27;;;24.40;;
35518;SDS011;21627;48.216;16.482;2023-12-04T07:53:05;49.53;;;21.33;;
35518;SDS011;21627;48.216;16.482;2023-12-04T07:55:34;49.23;;;23.37;;
35518;SDS011;21627;48.216;16.482;2023-12-04T07:58:01;55.53;;;24.27;;
35518;SDS011;21627;48.216;16.482;2023-12-04T08:00:28;112.90;;;37.53;;
35518;SDS011;21627;48.216;16.482;2023-12-04T08:02:56;125.30;;;45.93;;
35518;SDS011;21627;48.216;16.482;2023-12-04T08:05:23;353.97;;;113.80;;
35518;SDS011;21627;48.216;16.482;2023-12-04T08:07:50;411.03;;;129.30;;
35518;SDS011;21627;48.216;16.482;2023-12-04T08:10:17;283.07;;;100.47;;
35518;SDS011;21627;48.216;16.482;2023-12-04T08:12:45;183.50;;;66.37;;
35518;SDS011;21627;48.216;16.482;2023-12-04T08:15:13;85.93;;;35.13;;
35518;SDS011;21627;48.216;16.482;2023-12-04T08:17:40;78.13;;;35.40;;
35518;SDS011;21627;48.216;16.482;2023-12-04T08:20:08;56.40;;;25.47;;
35518;SDS011;21627;48.216;16.482;2023-12-04T08:22:49;59.80;;;29.37;;
35518;SDS011;21627;48.216;16.482;2023-12-04T08:25:16;78.67;;;34.97;;
35518;SDS011;21627;48.216;16.482;2023-12-04T08:27:43;71.33;;;34.37;;
35518;SDS011;21627;48.216;16.482;2023-12-04T08:30:11;57.43;;;29.53;;
35518;SDS011;21627;48.216;16.482;2023-12-04T08:32:38;34.87;;;19.20;;
35518;SDS011;21627;48.216;16.482;2023-12-04T08:35:05;36.80;;;19.07;;
35518;SDS011;21627;48.216;16.482;2023-12-04T08:37:33;38.17;;;20.50;;
35518;SDS011;21627;48.216;16.482;2023-12-04T08:40:00;39.67;;;19.50;;
35518;SDS011;21627;48.216;16.482;2023-12-04T08:42:30;36.43;;;20.23;;
35518;SDS011;21627;48.216;16.482;2023-12-04T08:44:57;35.20;;;19.53;;
35518;SDS011;21627;48.216;16.482;2023-12-04T08:47:24;42.47;;;21.60;;
35518;SDS011;21627;48.216;16.482;2023-12-04T08:49:51;40.43;;;20.53;;
35518;SDS011;21627;48.216;16.482;2023-12-04T08:52:18;35.67;;;20.50;;
35518;SDS011;21627;48.216;16.482;2023-12-04T08:54:46;36.80;;;19.70;;
35518;SDS011;21627;48.216;16.482;2023-12-04T08:57:13;36.90;;;20.13;;
35518;SDS011;21627;48.216;16.482;2023-12-04T08:59:40;35.67;;;19.70;;
35518;SDS011;21627;48.216;16.482;2023-12-04T09:02:08;38.33;;;20.97;;
35518;SDS011;21627;48.216;16.482;2023-12-04T09:04:38;41.73;;;20.97;;
35518;SDS011;21627;48.216;16.482;2023-12-04T09:07:06;39.50;;;19.90;;
35518;SDS011;21627;48.216;16.482;2023-12-04T09:09:36;41.20;;;21.17;;
35518;SDS011;21627;48.216;16.482;2023-12-04T09:12:03;42.10;;;20.93;;
35518;SDS011;21627;48.216;16.482;2023-12-04T09:14:31;43.70;;;21.50;;
35518;SDS011;21627;48.216;16.482;2023-12-04T09:16:58;41.30;;;21.00;;
35518;SDS011;21627;48.216;16.482;2023-12-04T09:19:25;40.37;;;21.63;;
35518;SDS011;21627;48.216;16.482;2023-12-04T09:21:52;43.53;;;22.10;;
35518;SDS011;21627;48.216;16.482;2023-12-04T09:24:34;41.20;;;21.10;;
35518;SDS011;21627;48.216;16.482;2023-12-04T09:27:01;41.50;;;21.53;;
35518;SDS011;21627;48.216;16.482;2023-12-04T09:29:28;39.50;;;21.33;;
35518;SDS011;21627;48.216;16.482;2023-12-04T09:31:56;38.50;;;21.80;;
35518;SDS011;21627;48.216;16.482;2023-12-04T09:34:23;50.23;;;25.80;;
35518;SDS011;21627;48.216;16.482;2023-12-04T09:36:50;44.10;;;23.43;;
35518;SDS011;21627;48.216;16.482;2023-12-04T09:39:20;46.57;;;23.73;;
35518;SDS011;21627;48.216;16.482;2023-12-04T09:41:48;44.87;;;24.03;;
35518;SDS011;21627;48.216;16.482;2023-12-04T09:44:15;44.10;;;21.33;;
35518;SDS011;21627;48.216;16.482;2023-12-04T09:46:46;43.10;;;23.50;;
35518;SDS011;21627;48.216;16.482;2023-12-04T09:49:14;43.70;;;21.40;;
35518;SDS011;21627;48.216;16.482;2023-12-04T09:51:44;45.43;;;22.90;;
35518;SDS011;21627;48.216;16.482;2023-12-04T09:54:11;43.10;;;21.93;;
35518;SDS011;21627;48.216;16.482;2023-12-04T09:56:39;45.67;;;22.30;;
35518;SDS011;21627;48.216;16.482;2023-12-04T09:59:06;46.53;;;24.53;;
35518;SDS011;21627;48.216;16.482;2023-12-04T10:01:34;47.40;;;24.30;;
35518;SDS011;21627;48.216;16.482;2023-12-04T10:04:02;52.80;;;24.73;;
35518;SDS011;21627;48.216;16.482;2023-12-04T10:06:31;54.33;;;25.97;;
35518;SDS011;21627;48.216;16.482;2023-12-04T10:08:59;52.37;;;25.47;;
35518;SDS011;21627;48.216;16.482;2023-12-04T10:11:27;53.07;;;25.90;;
35518;SDS011;21627;48.216;16.482;2023-12-04T10:13:54;47.53;;;24.47;;
35518;SDS011;21627;48.216;16.482;2023-12-04T10:16:35;46.53;;;24.80;;
35518;SDS011;21627;48.216;16.482;2023-12-04T10:19:22;41.63;;;21.83;;
35518;SDS011;21627;48.216;16.482;2023-12-04T10:21:56;47.23;;;25.47;;
35518;SDS011;21627;48.216;16.482;2023-12-04T10:24:30;48.80;;;24.10;;
35518;SDS011;21627;48.216;16.482;2023-12-04T10:27:05;40.17;;;21.43;;
35518;SDS011;21627;48.216;16.482;2023-12-04T10:29:45;39.73;;;20.80;;
35518;SDS011;21627;48.216;16.482;2023-12-04T10:32:23;45.27;;;22.67;;
35518;SDS011;21627;48.216;16.482;2023-12-04T10:34:50;41.67;;;20.10;;
35518;SDS011;21627;48.216;16.482;2023-12-04T10:37:18;35.53;;;18.90;;
35518;SDS011;21627;48.216;16.482;2023-12-04T10:39:49;34.73;;;19.87;;
35518;SDS011;21627;48.216;16.482;2023-12-04T10:42:27;25.63;;;15.93;;
35518;SDS011;21627;48.216;16.482;2023-12-04T10:44:59;26.30;;;15.43;;
35518;SDS011;21627;48.216;16.482;2023-12-04T10:47:28;24.23;;;15.83;;
35518;SDS011;21627;48.216;16.482;2023-12-04T10:49:58;27.03;;;14.90;;
35518;SDS011;21627;48.216;16.482;2023-12-04T10:52:26;26.10;;;14.87;;
35518;SDS011;21627;48.216;16.482;2023-12-04T10:54:56;25.67;;;14.17;;
35518;SDS011;21627;48.216;16.482;2023-12-04T10:57:31;29.00;;;15.83;;
35518;SDS011;21627;48.216;16.482;2023-12-04T11:00:07;26.40;;;14.23;;
35518;SDS011;21627;48.216;16.482;2023-12-04T11:02:38;24.10;;;14.53;;
35518;SDS011;21627;48.216;16.482;2023-12-04T11:05:15;24.77;;;15.00;;
35518;SDS011;21627;48.216;16.482;2023-12-04T11:07:49;23.20;;;14.97;;
35518;SDS011;21627;48.216;16.482;2023-12-04T11:10:48;31.27;;;15.33;;
35518;SDS011;21627;48.216;16.482;2023-12-04T11:13:28;30.00;;;15.75;;
35518;SDS011;21627;48.216;16.482;2023-12-04T11:16:07;23.13;;;14.52;;
35518;SDS011;21627;48.216;16.482;2023-12-04T11:18:53;26.63;;;14.43;;
35518;SDS011;21627;48.216;16.482;2023-12-04T11:21:31;20.90;;;13.20;;
35518;SDS011;21627;48.216;16.482;2023-12-04T11:24:00;34.17;;;14.60;;
35518;SDS011;21627;48.216;16.482;2023-12-04T11:26:28;29.03;;;15.93;;
35518;SDS011;21627;48.216;16.482;2023-12-04T11:28:56;27.17;;;15.37;;
35518;SDS011;21627;48.216;16.482;2023-12-04T11:31:24;27.20;;;15.23;;
35518;SDS011;21627;48.216;16.482;2023-12-04T11:33:51;26.40;;;14.80;;
35518;SDS011;21627;48.216;16.482;2023-12-04T11:36:19;24.30;;;14.07;;
35518;SDS011;21627;48.216;16.482;2023-12-04T11:38:48;32.93;;;14.57;;
35518;SDS011;21627;48.216;16.482;2023-12-04T11:41:19;337.37;;;42.87;;
35518;SDS011;21627;48.216;16.482;2023-12-04T11:43:52;39.23;;;13.30;;
35518;SDS011;21627;48.216;16.482;2023-12-04T11:46:24;20.23;;;13.07;;
35518;SDS011;21627;48.216;16.482;2023-12-04T11:48:55;20.47;;;12.90;;
35518;SDS011;21627;48.216;16.482;2023-12-04T11:51:55;24.20;;;13.17;;
35518;SDS011;21627;48.216;16.482;2023-12-04T11:54:25;25.43;;;13.90;;
35518;SDS011;21627;48.216;16.482;2023-12-04T11:59:37;26.67;;;13.60;;
35518;SDS011;21627;48.216;16.482;2023-12-04T12:02:08;23.27;;;12.47;;
35518;SDS011;21627;48.216;16.482;2023-12-04T12:04:37;23.83;;;13.17;;
35518;SDS011;21627;48.216;16.482;2023-12-04T12:07:05;23.27;;;14.23;;
35518;SDS011;21627;48.216;16.482;2023-12-04T12:09:33;25.73;;;13.70;;
35518;SDS011;21627;48.216;16.482;2023-12-04T12:12:01;22.37;;;13.83;;
35518;SDS011;21627;48.216;16.482;2023-12-04T12:14:30;22.73;;;13.47;;
35518;SDS011;21627;48.216;16.482;2023-12-04T12:16:58;21.67;;;12.97;;
35518;SDS011;21627;48.216;16.482;2023-12-04T12:19:27;23.33;;;13.40;;
35518;SDS011;21627;48.216;16.482;2023-12-04T12:21:55;27.10;;;14.63;;
35518;SDS011;21627;48.216;16.482;2023-12-04T12:24:26;25.10;;;14.03;;
35518;SDS011;21627;48.216;16.482;2023-12-04T12:26:54;23.67;;;14.03;;
35518;SDS011;21627;48.216;16.482;2023-12-04T12:29:24;20.37;;;13.20;;
35518;SDS011;21627;48.216;16.482;2023-12-04T12:31:53;21.87;;;13.13;;
35518;SDS011;21627;48.216;16.482;2023-12-04T12:34:21;29.70;;;14.27;;
35518;SDS011;21627;48.216;16.482;2023-12-04T12:36:48;24.67;;;14.57;;
35518;SDS011;21627;48.216;16.482;2023-12-04T12:39:16;27.03;;;13.90;;
35518;SDS011;21627;48.216;16.482;2023-12-04T12:41:49;24.80;;;13.83;;
35518;SDS011;21627;48.216;16.482;2023-12-04T12:44:16;23.50;;;13.30;;
35518;SDS011;21627;48.216;16.482;2023-12-04T12:46:50;21.20;;;13.67;;
35518;SDS011;21627;48.216;16.482;2023-12-04T12:49:18;22.50;;;12.93;;
35518;SDS011;21627;48.216;16.482;2023-12-04T12:52:01;22.13;;;13.50;;
35518;SDS011;21627;48.216;16.482;2023-12-04T12:54:41;29.97;;;13.10;;
35518;SDS011;21627;48.216;16.482;2023-12-04T12:57:11;21.30;;;11.40;;
35518;SDS011;21627;48.216;16.482;2023-12-04T12:59:39;21.30;;;12.80;;
35518;SDS011;21627;48.216;16.482;2023-12-04T13:02:07;19.83;;;12.67;;
35518;SDS011;21627;48.216;16.482;2023-12-04T13:04:35;19.73;;;11.63;;
35518;SDS011;21627;48.216;16.482;2023-12-04T13:07:11;24.07;;;12.30;;
35518;SDS011;21627;48.216;16.482;2023-12-04T13:09:38;17.97;;;11.20;;
35518;SDS011;21627;48.216;16.482;2023-12-04T13:12:05;15.97;;;10.30;;
35518;SDS011;21627;48.216;16.482;2023-12-04T13:14:34;20.97;;;9.73;;
35518;SDS011;21627;48.216;16.482;2023-12-04T13:17:03;16.80;;;9.83;;
35518;SDS011;21627;48.216;16.482;2023-12-04T13:19:30;14.57;;;9.87;;
35518;SDS011;21627;48.216;16.482;2023-12-04T13:21:58;19.53;;;10.13;;
35518;SDS011;21627;48.216;16.482;2023-12-04T13:24:25;17.67;;;10.80;;
35518;SDS011;21627;48.216;16.482;2023-12-04T13:26:52;16.80;;;9.67;;
35518;SDS011;21627;48.216;16.482;2023-12-04T13:29:19;21.67;;;10.77;;
35518;SDS011;21627;48.216;16.482;2023-12-04T13:31:47;15.53;;;9.73;;
35518;SDS011;21627;48.216;16.482;2023-12-04T13:34:17;19.73;;;10.70;;
35518;SDS011;21627;48.216;16.482;2023-12-04T13:36:44;18.57;;;10.80;;
35518;SDS011;21627;48.216;16.482;2023-12-04T13:39:11;17.27;;;11.20;;
35518;SDS011;21627;48.216;16.482;2023-12-04T13:41:54;17.20;;;11.20;;
35518;SDS011;21627;48.216;16.482;2023-12-04T13:44:40;17.35;;;10.68;;
35518;SDS011;21627;48.216;16.482;2023-12-04T13:47:07;19.17;;;10.17;;
35518;SDS011;21627;48.216;16.482;2023-12-04T13:49:34;18.50;;;10.87;;
35518;SDS011;21627;48.216;16.482;2023-12-04T13:52:02;19.07;;;10.40;;
35518;SDS011;21627;48.216;16.482;2023-12-04T13:54:33;16.90;;;10.73;;
35518;SDS011;21627;48.216;16.482;2023-12-04T13:57:15;16.60;;;9.80;;
35518;SDS011;21627;48.216;16.482;2023-12-04T13:59:54;16.60;;;10.10;;
35518;SDS011;21627;48.216;16.482;2023-12-04T14:02:24;16.87;;;10.63;;
35518;SDS011;21627;48.216;16.482;2023-12-04T14:04:52;16.23;;;9.60;;
35518;SDS011;21627;48.216;16.482;2023-12-04T14:07:19;15.63;;;9.63;;
35518;SDS011;21627;48.216;16.482;2023-12-04T14:09:47;16.30;;;9.30;;
35518;SDS011;21627;48.216;16.482;2023-12-04T14:12:15;19.30;;;9.77;;
35518;SDS011;21627;48.216;16.482;2023-12-04T14:14:42;19.67;;;10.20;;
35518;SDS011;21627;48.216;16.482;2023-12-04T14:17:09;16.03;;;10.17;;
35518;SDS011;21627;48.216;16.482;2023-12-04T14:19:38;20.03;;;10.93;;
35518;SDS011;21627;48.216;16.482;2023-12-04T14:22:06;21.60;;;11.60;;